createdAt,value
2022-08-12T00:01:16.508Z,0
2022-08-12T00:02:32.629Z,0
2022-08-12T00:03:49.733Z,0
2022-08-12T00:05:06.837Z,0
2022-08-12T00:06:23.941Z,0
2022-08-12T00:07:41.045Z,0
2022-08-12T00:08:58.149Z,0
2022-08-12T00:10:15.253Z,0
2022-08-12T00:11:32.357Z,0
2022-08-12T00:12:49.461Z,0
2022-08-12T00:14:06.565Z,0
2022-08-12T00:15:23.669Z,0
2022-08-12T00:16:40.773Z,0
2022-08-12T00:17:57.877Z,0
2022-08-12T00:19:13.997Z,0
2022-08-12T00:20:31.101Z,0
2022-08-12T00:21:48.205Z,0
2022-08-12T00:23:05.309Z,0
2022-08-12T00:24:22.413Z,0
2022-08-12T00:25:39.517Z,0
2022-08-12T00:26:56.621Z,0
2022-08-12T00:28:13.725Z,0
2022-08-12T00:29:30.829Z,0
2022-08-12T00:30:47.933Z,0
2022-08-12T00:32:05.037Z,0
2022-08-12T00:33:22.141Z,0
2022-08-12T00:34:39.245Z,0
2022-08-12T00:35:55.365Z,0
2022-08-12T00:37:12.469Z,0
2022-08-12T00:38:29.574Z,0
2022-08-12T00:39:46.678Z,0
2022-08-12T00:41:03.782Z,0
2022-08-12T00:42:20.886Z,0
2022-08-12T00:43:37.990Z,0
2022-08-12T00:44:55.094Z,0
2022-08-12T00:46:12.198Z,0
2022-08-12T00:47:29.302Z,0
2022-08-12T00:48:46.406Z,0
2022-08-12T00:50:03.510Z,0
2022-08-12T00:51:20.614Z,0
2022-08-12T00:52:36.734Z,0
2022-08-12T00:53:53.838Z,0
2022-08-12T00:55:10.942Z,0
2022-08-12T00:56:28.046Z,0
2022-08-12T00:57:45.151Z,0
2022-08-12T00:59:02.255Z,0
2022-08-12T01:00:19.359Z,0
2022-08-12T01:01:36.463Z,0
2022-08-12T01:02:53.567Z,0
2022-08-12T01:04:10.671Z,0
2022-08-12T01:05:27.775Z,0
2022-08-12T01:06:44.879Z,0
2022-08-12T01:08:01.983Z,0
2022-08-12T01:09:18.103Z,0
2022-08-12T01:10:35.208Z,0
2022-08-12T01:11:52.312Z,0
2022-08-12T01:13:09.416Z,0
2022-08-12T01:14:26.520Z,0
2022-08-12T01:15:43.624Z,0
2022-08-12T01:17:00.728Z,0
2022-08-12T01:18:17.832Z,0
2022-08-12T01:19:34.936Z,0
2022-08-12T01:20:52.040Z,0
2022-08-12T01:22:09.144Z,0
2022-08-12T01:23:26.248Z,0
2022-08-12T01:24:43.352Z,0
2022-08-12T01:25:59.473Z,0
2022-08-12T01:27:16.576Z,0
2022-08-12T01:28:33.680Z,0
2022-08-12T01:29:50.784Z,0
2022-08-12T01:31:07.889Z,0
2022-08-12T01:32:24.993Z,0
2022-08-12T01:33:42.097Z,0
2022-08-12T01:34:59.201Z,0
2022-08-12T01:36:16.305Z,0
2022-08-12T01:37:33.409Z,0
2022-08-12T01:38:50.513Z,0
2022-08-12T01:40:07.617Z,0
2022-08-12T01:41:24.722Z,0
2022-08-12T01:42:40.842Z,0
2022-08-12T01:43:57.946Z,0
2022-08-12T01:45:15.050Z,0
2022-08-12T01:46:32.154Z,0
2022-08-12T01:47:49.258Z,0
2022-08-12T01:49:06.362Z,0
2022-08-12T01:50:23.467Z,0
2022-08-12T01:51:40.571Z,0
2022-08-12T01:52:57.675Z,0
2022-08-12T01:54:14.779Z,0
2022-08-12T01:55:31.883Z,0
2022-08-12T01:56:48.987Z,0
2022-08-12T01:58:06.091Z,0
2022-08-12T01:59:22.212Z,0
2022-08-12T02:00:39.316Z,0
2022-08-12T02:01:56.420Z,0
2022-08-12T02:03:13.524Z,0
2022-08-12T02:04:30.628Z,0
2022-08-12T02:05:47.732Z,0
2022-08-12T02:07:04.837Z,0
2022-08-12T02:08:21.941Z,0
2022-08-12T02:09:39.045Z,0
2022-08-12T02:10:56.150Z,0
2022-08-12T02:12:13.254Z,0
2022-08-12T02:13:30.358Z,0
2022-08-12T02:14:47.462Z,0
2022-08-12T02:16:03.583Z,0
2022-08-12T02:17:20.687Z,0
2022-08-12T02:18:37.792Z,0
2022-08-12T02:19:54.896Z,0
2022-08-12T02:21:12.000Z,0
2022-08-12T02:22:29.105Z,0
2022-08-12T02:23:46.209Z,0
2022-08-12T02:25:03.313Z,0
2022-08-12T02:26:20.418Z,0
2022-08-12T02:27:37.523Z,0
2022-08-12T02:28:54.628Z,0
2022-08-12T02:30:11.732Z,0
2022-08-12T02:31:28.836Z,0
2022-08-12T02:32:44.957Z,0
2022-08-12T02:34:02.061Z,0
2022-08-12T02:35:19.166Z,0
2022-08-12T02:36:36.270Z,0
2022-08-12T02:37:53.374Z,0
2022-08-12T02:39:10.478Z,0
2022-08-12T02:40:27.583Z,0
2022-08-12T02:41:44.687Z,0
2022-08-12T02:43:01.792Z,0
2022-08-12T02:44:18.896Z,0
2022-08-12T02:45:36.000Z,0
2022-08-12T02:46:53.105Z,0
2022-08-12T02:48:10.209Z,0
2022-08-12T02:49:26.329Z,0
2022-08-12T02:50:43.434Z,0
2022-08-12T02:52:00.539Z,0
2022-08-12T02:53:17.643Z,0
2022-08-12T02:54:34.747Z,0
2022-08-12T02:55:51.851Z,0
2022-08-12T02:57:07.972Z,0
2022-08-12T02:58:25.076Z,0
2022-08-12T02:59:42.180Z,0
2022-08-12T03:00:59.285Z,0
2022-08-12T03:02:16.389Z,0
2022-08-12T03:03:33.494Z,0
2022-08-12T03:04:50.598Z,0
2022-08-12T03:06:07.702Z,0
2022-08-12T03:07:24.806Z,0
2022-08-12T03:08:41.911Z,0
2022-08-12T03:09:59.015Z,0
2022-08-12T03:11:16.119Z,0
2022-08-12T03:12:33.223Z,0
2022-08-12T03:13:49.344Z,0
2022-08-12T03:15:06.448Z,0
2022-08-12T03:16:23.553Z,0
2022-08-12T03:17:40.657Z,0
2022-08-12T03:18:57.761Z,0
2022-08-12T03:20:14.865Z,0
2022-08-12T03:21:31.970Z,4
2022-08-12T03:22:49.074Z,4
2022-08-12T03:24:06.178Z,0
2022-08-12T03:25:23.282Z,0
2022-08-12T03:26:40.387Z,4
2022-08-12T03:27:57.491Z,0
2022-08-12T03:29:14.595Z,4
2022-08-12T03:30:30.715Z,4
2022-08-12T03:31:47.819Z,4
2022-08-12T03:33:04.924Z,4
2022-08-12T03:34:22.028Z,8
2022-08-12T03:35:39.132Z,8
2022-08-12T03:36:56.236Z,8
2022-08-12T03:38:13.341Z,8
2022-08-12T03:39:30.445Z,12
2022-08-12T03:40:47.549Z,20
2022-08-12T03:42:04.653Z,20
2022-08-12T03:43:21.757Z,24
2022-08-12T03:44:38.862Z,32
2022-08-12T03:45:55.966Z,36
2022-08-12T03:47:12.086Z,44
2022-08-12T03:48:29.191Z,52
2022-08-12T03:49:46.295Z,64
2022-08-12T03:51:03.399Z,76
2022-08-12T03:52:20.503Z,88
2022-08-12T03:53:37.607Z,104
2022-08-12T03:54:54.712Z,120
2022-08-12T03:56:11.816Z,140
2022-08-12T03:57:28.920Z,164
2022-08-12T03:58:46.025Z,188
2022-08-12T04:00:03.129Z,216
2022-08-12T04:01:20.233Z,244
2022-08-12T04:02:37.337Z,276
2022-08-12T04:03:53.457Z,312
2022-08-12T04:05:10.561Z,348
2022-08-12T04:06:27.666Z,388
2022-08-12T04:07:44.770Z,432
2022-08-12T04:09:01.874Z,476
2022-08-12T04:10:18.979Z,528
2022-08-12T04:11:36.083Z,576
2022-08-12T04:12:53.187Z,636
2022-08-12T04:14:10.291Z,696
2022-08-12T04:15:27.395Z,760
2022-08-12T04:16:44.500Z,832
2022-08-12T04:18:01.604Z,912
2022-08-12T04:19:18.708Z,996
2022-08-12T04:20:34.828Z,1080
2022-08-12T04:21:51.933Z,1176
2022-08-12T04:23:09.037Z,1276
2022-08-12T04:24:26.142Z,1388
2022-08-12T04:25:43.246Z,1500
2022-08-12T04:27:00.350Z,1620
2022-08-12T04:28:17.454Z,1748
2022-08-12T04:29:34.559Z,1876
2022-08-12T04:30:51.663Z,2016
2022-08-12T04:32:08.768Z,2160
2022-08-12T04:33:25.872Z,2316
2022-08-12T04:34:42.976Z,2472
2022-08-12T04:36:00.081Z,2724
2022-08-12T04:37:16.201Z,2904
2022-08-12T04:38:33.306Z,3388
2022-08-12T04:39:50.410Z,3512
2022-08-12T04:41:07.515Z,5612
2022-08-12T04:42:24.619Z,10336
2022-08-12T04:43:41.724Z,12896
2022-08-12T04:44:58.828Z,12832
2022-08-12T04:46:15.932Z,14336
2022-08-12T04:47:33.036Z,15232
2022-08-12T04:48:50.141Z,16448
2022-08-12T04:50:07.245Z,19424
2022-08-12T04:51:24.349Z,18752
2022-08-12T04:52:41.453Z,19392
2022-08-12T04:53:57.573Z,17952
2022-08-12T04:55:14.678Z,21536
2022-08-12T04:56:31.782Z,22432
2022-08-12T04:57:48.887Z,24032
2022-08-12T04:59:05.991Z,23936
2022-08-12T05:00:23.094Z,24832
2022-08-12T05:01:40.198Z,24256
2022-08-12T05:02:57.302Z,26880
2022-08-12T05:04:14.406Z,28704
2022-08-12T05:05:31.510Z,29120
2022-08-12T05:06:48.614Z,29376
2022-08-12T05:08:05.718Z,29184
2022-08-12T05:09:22.823Z,30112
2022-08-12T05:10:38.943Z,32032
2022-08-12T05:11:56.047Z,33440
2022-08-12T05:13:13.151Z,34048
2022-08-12T05:14:30.255Z,32288
2022-08-12T05:15:47.359Z,34464
2022-08-12T05:17:04.463Z,13864
2022-08-12T05:18:21.567Z,6632
2022-08-12T05:19:38.671Z,6644
2022-08-12T05:20:55.775Z,6700
2022-08-12T05:22:12.879Z,6756
2022-08-12T05:23:29.982Z,6824
2022-08-12T05:24:47.086Z,6900
2022-08-12T05:26:04.190Z,6992
2022-08-12T05:27:20.310Z,7100
2022-08-12T05:28:37.415Z,10932
2022-08-12T05:29:54.519Z,29984
2022-08-12T05:31:11.624Z,40416
2022-08-12T05:32:28.727Z,43520
2022-08-12T05:33:45.831Z,44192
2022-08-12T05:35:02.935Z,41376
2022-08-12T05:36:20.040Z,42816
2022-08-12T05:37:37.144Z,47904
2022-08-12T05:38:54.249Z,42432
2022-08-12T05:40:11.353Z,40960
2022-08-12T05:41:28.457Z,41152
2022-08-12T05:42:45.561Z,39968
2022-08-12T05:44:01.681Z,41184
2022-08-12T05:45:18.785Z,44928
2022-08-12T05:46:35.889Z,39136
2022-08-12T05:47:52.993Z,47104
2022-08-12T05:49:10.098Z,41440
2022-08-12T05:50:27.202Z,35616
2022-08-12T05:51:44.306Z,35968
2022-08-12T05:53:01.410Z,40544
2022-08-12T05:54:18.514Z,44416
2022-08-12T05:55:35.619Z,43936
2022-08-12T05:56:52.723Z,44864
2022-08-12T05:58:09.827Z,44640
2022-08-12T05:59:26.932Z,41760
2022-08-12T06:00:43.053Z,45408
2022-08-12T06:02:00.157Z,46368
2022-08-12T06:03:17.261Z,48096
2022-08-12T06:04:34.365Z,47616
2022-08-12T06:05:51.469Z,50688
2022-08-12T06:07:08.574Z,47136
2022-08-12T06:08:25.679Z,47168
2022-08-12T06:09:42.783Z,47584
2022-08-12T06:10:59.888Z,48608
2022-08-12T06:12:16.994Z,47008
2022-08-12T06:13:34.098Z,45376
2022-08-12T06:14:51.203Z,43424
2022-08-12T06:16:08.308Z,41504
2022-08-12T06:17:24.428Z,45696
2022-08-12T06:18:41.533Z,48736
2022-08-12T06:19:58.637Z,46368
2022-08-12T06:21:15.741Z,46176
2022-08-12T06:22:32.846Z,46304
2022-08-12T06:23:49.951Z,50304
2022-08-12T06:25:07.055Z,45440
2022-08-12T06:26:24.160Z,51328
2022-08-12T06:27:41.265Z,46560
2022-08-12T06:28:58.369Z,49792
2022-08-12T06:30:15.474Z,45472
2022-08-12T06:31:32.579Z,47936
2022-08-12T06:32:49.684Z,48384
2022-08-12T06:34:05.804Z,41312
2022-08-12T06:35:22.910Z,41824
2022-08-12T06:36:40.014Z,41536
2022-08-12T06:37:57.119Z,39776
2022-08-12T06:39:14.224Z,47424
2022-08-12T06:40:31.329Z,48992
2022-08-12T06:41:48.433Z,42720
2022-08-12T06:43:05.538Z,48224
2022-08-12T06:44:22.643Z,45728
2022-08-12T06:45:39.748Z,43424
2022-08-12T06:46:56.853Z,42144
2022-08-12T06:48:13.958Z,45984
2022-08-12T06:49:31.062Z,49536
2022-08-12T06:50:47.183Z,45312
2022-08-12T06:52:04.288Z,39968
2022-08-12T06:53:21.393Z,42272
2022-08-12T06:54:38.498Z,48544
2022-08-12T06:55:55.603Z,46272
2022-08-12T06:57:12.708Z,46848
2022-08-12T06:58:29.813Z,43200
2022-08-12T06:59:46.918Z,41632
2022-08-12T07:01:04.023Z,44288
2022-08-12T07:02:21.128Z,44288
2022-08-12T07:03:38.233Z,47008
2022-08-12T07:04:55.338Z,47104
2022-08-12T07:06:12.443Z,38080
2022-08-12T07:07:28.565Z,41408
2022-08-12T07:08:45.670Z,45568
2022-08-12T07:10:02.775Z,47296
2022-08-12T07:11:19.880Z,50208
2022-08-12T07:12:36.985Z,42624
2022-08-12T07:13:54.091Z,61088
2022-08-12T07:15:10.212Z,70752
2022-08-12T07:16:27.317Z,41568
2022-08-12T07:17:44.422Z,22816
2022-08-12T07:19:01.527Z,20768
2022-08-12T07:20:18.632Z,20288
2022-08-12T07:21:35.738Z,20096
2022-08-12T07:22:52.843Z,19936
2022-08-12T07:24:09.948Z,19776
2022-08-12T07:25:27.053Z,19680
2022-08-12T07:26:44.158Z,19648
2022-08-12T07:28:01.263Z,19744
2022-08-12T07:29:18.368Z,19872
2022-08-12T07:30:35.473Z,20000
2022-08-12T07:31:51.594Z,20000
2022-08-12T07:33:08.699Z,20000
2022-08-12T07:34:25.804Z,20672
2022-08-12T07:35:42.909Z,21664
2022-08-12T07:37:00.014Z,21376
2022-08-12T07:38:17.119Z,21344
2022-08-12T07:39:34.225Z,21120
2022-08-12T07:40:51.330Z,20864
2022-08-12T07:42:08.435Z,19616
2022-08-12T07:43:25.541Z,19616
2022-08-12T07:44:42.646Z,19712
2022-08-12T07:45:59.751Z,19808
2022-08-12T07:47:16.856Z,19488
2022-08-12T07:48:32.978Z,19328
2022-08-12T07:49:50.083Z,19008
2022-08-12T07:51:07.188Z,18720
2022-08-12T07:52:24.294Z,18464
2022-08-12T07:53:41.399Z,18272
2022-08-12T07:54:58.505Z,18272
2022-08-12T07:56:15.610Z,18240
2022-08-12T07:57:32.715Z,18208
2022-08-12T07:58:49.821Z,18240
2022-08-12T08:00:06.926Z,18208
2022-08-12T08:01:24.031Z,18208
2022-08-12T08:02:41.136Z,18240
2022-08-12T08:03:58.242Z,18240
2022-08-12T08:05:14.363Z,18560
2022-08-12T08:06:31.468Z,19488
2022-08-12T08:07:48.574Z,19456
2022-08-12T08:09:05.680Z,19680
2022-08-12T08:10:22.785Z,19904
2022-08-12T08:11:39.890Z,19872
2022-08-12T08:12:56.996Z,19616
2022-08-12T08:14:14.101Z,19424
2022-08-12T08:15:31.207Z,20256
2022-08-12T08:16:48.312Z,19648
2022-08-12T08:18:05.418Z,18944
2022-08-12T08:19:22.523Z,18944
2022-08-12T08:20:39.629Z,18304
2022-08-12T08:21:55.750Z,17856
2022-08-12T08:23:12.855Z,17920
2022-08-12T08:24:29.960Z,17824
2022-08-12T08:25:47.066Z,17536
2022-08-12T08:27:04.171Z,17312
2022-08-12T08:28:21.276Z,17152
2022-08-12T08:29:38.381Z,17216
2022-08-12T08:30:55.486Z,17056
2022-08-12T08:32:12.591Z,16832
2022-08-12T08:33:29.696Z,16736
2022-08-12T08:34:46.801Z,16736
2022-08-12T08:36:03.906Z,16832
2022-08-12T08:37:21.012Z,16864
2022-08-12T08:38:37.133Z,16736
2022-08-12T08:39:54.238Z,16576
2022-08-12T08:41:11.343Z,16352
2022-08-12T08:42:28.448Z,16120
2022-08-12T08:43:45.553Z,16136
2022-08-12T08:45:02.658Z,15984
2022-08-12T08:46:19.763Z,15884
2022-08-12T08:47:36.868Z,15792
2022-08-12T08:48:53.973Z,15760
2022-08-12T08:50:11.078Z,15808
2022-08-12T08:51:28.183Z,15872
2022-08-12T08:52:45.288Z,15912
2022-08-12T08:54:02.393Z,15812
2022-08-12T08:55:18.514Z,15812
2022-08-12T08:56:35.619Z,15784
2022-08-12T08:57:52.724Z,15768
2022-08-12T08:59:09.829Z,15800
2022-08-12T09:00:26.934Z,15768
2022-08-12T09:01:44.039Z,15696
2022-08-12T09:03:01.144Z,15692
2022-08-12T09:04:18.249Z,15696
2022-08-12T09:05:35.354Z,15656
2022-08-12T09:06:52.459Z,15648
2022-08-12T09:08:09.564Z,15516
2022-08-12T09:09:26.669Z,15540
2022-08-12T09:10:43.774Z,15484
2022-08-12T09:11:59.895Z,15484
2022-08-12T09:13:17.000Z,15484
2022-08-12T09:14:34.106Z,15440
2022-08-12T09:15:51.211Z,15436
2022-08-12T09:17:08.316Z,15344
2022-08-12T09:18:25.421Z,15364
2022-08-12T09:19:42.526Z,15400
2022-08-12T09:20:59.631Z,15344
2022-08-12T09:22:16.736Z,15312
2022-08-12T09:23:33.841Z,15236
2022-08-12T09:24:50.946Z,15244
2022-08-12T09:26:08.051Z,15264
2022-08-12T09:27:25.157Z,15180
2022-08-12T09:28:41.276Z,15196
2022-08-12T09:29:58.382Z,15232
2022-08-12T09:31:15.487Z,15348
2022-08-12T09:32:32.592Z,15336
2022-08-12T09:33:49.697Z,15260
2022-08-12T09:35:06.803Z,15260
2022-08-12T09:36:23.908Z,15392
2022-08-12T09:37:41.013Z,15892
2022-08-12T09:38:58.118Z,15988
2022-08-12T09:40:15.223Z,15504
2022-08-12T09:41:32.328Z,15528
2022-08-12T09:42:49.433Z,16832
2022-08-12T09:44:06.538Z,16992
2022-08-12T09:45:22.659Z,16192
2022-08-12T09:46:39.765Z,16384
2022-08-12T09:47:56.870Z,16256
2022-08-12T09:49:13.975Z,16288
2022-08-12T09:50:31.080Z,16192
2022-08-12T09:51:48.185Z,15880
2022-08-12T09:53:05.290Z,16320
2022-08-12T09:54:22.394Z,15844
2022-08-12T09:55:39.499Z,16068
2022-08-12T09:56:56.604Z,15752
2022-08-12T09:58:13.709Z,16000
2022-08-12T09:59:30.814Z,15976
2022-08-12T10:00:47.918Z,16224
2022-08-12T10:02:04.039Z,16448
2022-08-12T10:03:21.144Z,16448
2022-08-12T10:04:38.248Z,16384
2022-08-12T10:05:55.353Z,16256
2022-08-12T10:07:12.458Z,15852
2022-08-12T10:08:29.563Z,15948
2022-08-12T10:09:46.667Z,15820
2022-08-12T10:11:03.772Z,15508
2022-08-12T10:12:20.876Z,15760
2022-08-12T10:13:37.981Z,16084
2022-08-12T10:14:55.086Z,16704
2022-08-12T10:16:12.190Z,16448
2022-08-12T10:17:29.295Z,15348
2022-08-12T10:18:45.416Z,14852
2022-08-12T10:20:02.521Z,15100
2022-08-12T10:21:19.626Z,15500
2022-08-12T10:22:36.730Z,15056
2022-08-12T10:23:53.835Z,14712
2022-08-12T10:25:10.939Z,14600
2022-08-12T10:26:28.044Z,14828
2022-08-12T10:27:45.148Z,14780
2022-08-12T10:29:02.253Z,14632
2022-08-12T10:30:19.357Z,15036
2022-08-12T10:31:36.462Z,15396
2022-08-12T10:32:53.566Z,15020
2022-08-12T10:34:10.671Z,14068
2022-08-12T10:35:26.791Z,14100
2022-08-12T10:36:43.896Z,14656
2022-08-12T10:38:01.000Z,17216
2022-08-12T10:39:18.106Z,17216
2022-08-12T10:40:35.210Z,14508
2022-08-12T10:41:52.315Z,12908
2022-08-12T10:43:09.419Z,10392
2022-08-12T10:44:26.524Z,9672
2022-08-12T10:45:43.628Z,8988
2022-08-12T10:47:00.733Z,8436
2022-08-12T10:48:17.837Z,7992
2022-08-12T10:49:34.941Z,7612
2022-08-12T10:50:52.046Z,7284
2022-08-12T10:52:08.166Z,6936
2022-08-12T10:53:25.271Z,6704
2022-08-12T10:54:42.375Z,6600
2022-08-12T10:55:59.479Z,6576
2022-08-12T10:57:16.583Z,6592
2022-08-12T10:58:33.687Z,6568
2022-08-12T10:59:50.791Z,6536
2022-08-12T11:01:07.895Z,6512
2022-08-12T11:02:25.000Z,6516
2022-08-12T11:03:42.105Z,6488
2022-08-12T11:04:59.209Z,6472
2022-08-12T11:06:16.314Z,6444
2022-08-12T11:07:33.419Z,6448
2022-08-12T11:08:49.537Z,6404
2022-08-12T11:10:06.642Z,6376
2022-08-12T11:11:23.747Z,6356
2022-08-12T11:12:40.851Z,6308
2022-08-12T11:13:57.956Z,6256
2022-08-12T11:15:15.060Z,6232
2022-08-12T11:16:32.164Z,6216
2022-08-12T11:17:49.268Z,6192
2022-08-12T11:19:06.373Z,6116
2022-08-12T11:20:23.477Z,6116
2022-08-12T11:21:40.581Z,6100
2022-08-12T11:22:57.685Z,6076
2022-08-12T11:24:14.790Z,6048
2022-08-12T11:25:30.910Z,6008
2022-08-12T11:26:48.014Z,5984
2022-08-12T11:28:05.118Z,5956
2022-08-12T11:29:22.222Z,5924
2022-08-12T11:30:39.327Z,5880
2022-08-12T11:31:56.431Z,5856
2022-08-12T11:33:12.551Z,5812
2022-08-12T11:34:29.655Z,5776
2022-08-12T11:35:46.759Z,5756
2022-08-12T11:37:03.864Z,5736
2022-08-12T11:38:20.968Z,5708
2022-08-12T11:39:38.072Z,5688
2022-08-12T11:40:55.176Z,5656
2022-08-12T11:42:12.280Z,5632
2022-08-12T11:43:29.384Z,5596
2022-08-12T11:44:46.488Z,5580
2022-08-12T11:46:03.592Z,5552
2022-08-12T11:47:20.697Z,5524
2022-08-12T11:48:37.801Z,5480
2022-08-12T11:49:53.921Z,5460
2022-08-12T11:51:11.025Z,5456
2022-08-12T11:52:28.130Z,5452
2022-08-12T11:53:45.234Z,5464
2022-08-12T11:55:02.338Z,5416
2022-08-12T11:56:19.442Z,5404
2022-08-12T11:57:36.546Z,5388
2022-08-12T11:58:53.650Z,5364
2022-08-12T12:00:10.754Z,5364
2022-08-12T12:01:27.858Z,5348
2022-08-12T12:02:44.962Z,5328
2022-08-12T12:04:02.066Z,5352
2022-08-12T12:05:19.171Z,5360
2022-08-12T12:06:35.291Z,5352
2022-08-12T12:07:52.395Z,5352
2022-08-12T12:09:09.499Z,5340
2022-08-12T12:10:26.603Z,5344
2022-08-12T12:11:43.707Z,5332
2022-08-12T12:13:00.811Z,5320
2022-08-12T12:14:17.916Z,5304
2022-08-12T12:15:35.020Z,5308
2022-08-12T12:16:52.124Z,5296
2022-08-12T12:18:09.228Z,5304
2022-08-12T12:19:26.332Z,5288
2022-08-12T12:20:43.436Z,5280
2022-08-12T12:22:00.540Z,5264
2022-08-12T12:23:16.661Z,5272
2022-08-12T12:24:33.765Z,5264
2022-08-12T12:25:50.869Z,5276
2022-08-12T12:27:07.973Z,5300
2022-08-12T12:28:25.077Z,5268
2022-08-12T12:29:42.181Z,5272
2022-08-12T12:30:59.285Z,5272
2022-08-12T12:32:16.390Z,5280
2022-08-12T12:33:33.494Z,5300
2022-08-12T12:34:50.598Z,5284
2022-08-12T12:36:07.702Z,5268
2022-08-12T12:37:24.806Z,5268
2022-08-12T12:38:41.910Z,5264
2022-08-12T12:39:58.030Z,5276
2022-08-12T12:41:15.134Z,5272
2022-08-12T12:42:32.238Z,5260
2022-08-12T12:43:49.343Z,5264
2022-08-12T12:45:06.448Z,5268
2022-08-12T12:46:23.552Z,5276
2022-08-12T12:47:40.656Z,5276
2022-08-12T12:48:57.760Z,5276
2022-08-12T12:50:14.864Z,5284
2022-08-12T12:51:31.968Z,5280
2022-08-12T12:52:49.072Z,5272
2022-08-12T12:54:06.176Z,5280
2022-08-12T12:55:23.280Z,5264
2022-08-12T12:56:39.401Z,5280
2022-08-12T12:57:56.505Z,5280
2022-08-12T12:59:13.609Z,5280
2022-08-12T13:00:30.713Z,5284
2022-08-12T13:01:47.817Z,5304
2022-08-12T13:03:04.921Z,5308
2022-08-12T13:04:22.025Z,5308
2022-08-12T13:05:39.130Z,5300
2022-08-12T13:06:56.234Z,5304
2022-08-12T13:08:13.338Z,5332
2022-08-12T13:09:30.442Z,5320
2022-08-12T13:10:47.546Z,5316
2022-08-12T13:12:04.650Z,5336
2022-08-12T13:13:20.770Z,5348
2022-08-12T13:14:37.875Z,5332
2022-08-12T13:15:54.979Z,5336
2022-08-12T13:17:12.083Z,5364
2022-08-12T13:18:29.187Z,5384
2022-08-12T13:19:46.291Z,5372
2022-08-12T13:21:03.395Z,5392
2022-08-12T13:22:20.500Z,5424
2022-08-12T13:23:37.604Z,5420
2022-08-12T13:24:54.708Z,5476
2022-08-12T13:26:11.812Z,5556
2022-08-12T13:27:28.916Z,5512
2022-08-12T13:28:46.020Z,5424
2022-08-12T13:30:02.141Z,5388
2022-08-12T13:31:19.245Z,5372
2022-08-12T13:32:36.349Z,5364
2022-08-12T13:33:53.453Z,5372
2022-08-12T13:35:10.557Z,5384
2022-08-12T13:36:27.662Z,5368
2022-08-12T13:37:44.766Z,5400
2022-08-12T13:39:01.870Z,5364
2022-08-12T13:40:18.975Z,5368
2022-08-12T13:41:36.079Z,5376
2022-08-12T13:42:53.184Z,5368
2022-08-12T13:44:10.288Z,5360
2022-08-12T13:45:27.392Z,5356
2022-08-12T13:46:43.512Z,5356
2022-08-12T13:48:00.616Z,5344
2022-08-12T13:49:17.721Z,5344
2022-08-12T13:50:34.825Z,5336
2022-08-12T13:51:51.929Z,5348
2022-08-12T13:53:09.033Z,5324
2022-08-12T13:54:26.137Z,5332
2022-08-12T13:55:43.241Z,5308
2022-08-12T13:57:00.346Z,5304
2022-08-12T13:58:17.450Z,5320
2022-08-12T13:59:34.554Z,5304
2022-08-12T14:00:51.658Z,5296
2022-08-12T14:02:08.762Z,5316
2022-08-12T14:03:24.883Z,5292
2022-08-12T14:04:41.987Z,5296
2022-08-12T14:05:59.091Z,5312
2022-08-12T14:07:16.195Z,5300
2022-08-12T14:08:33.299Z,5276
2022-08-12T14:09:50.403Z,5288
2022-08-12T14:11:07.507Z,5256
2022-08-12T14:12:24.612Z,5256
2022-08-12T14:13:41.716Z,5232
2022-08-12T14:14:58.818Z,5216
2022-08-12T14:16:15.922Z,5208
2022-08-12T14:17:33.026Z,5200
2022-08-12T14:18:50.130Z,5188
2022-08-12T14:20:06.250Z,5180
2022-08-12T14:21:23.354Z,5172
2022-08-12T14:22:40.459Z,5172
2022-08-12T14:23:57.563Z,5152
2022-08-12T14:25:14.667Z,5160
2022-08-12T14:26:31.771Z,5152
2022-08-12T14:27:48.875Z,5144
2022-08-12T14:29:05.979Z,5184
2022-08-12T14:30:23.083Z,5136
2022-08-12T14:31:40.188Z,5124
2022-08-12T14:32:57.292Z,5116
2022-08-12T14:34:14.396Z,5108
2022-08-12T14:35:31.500Z,5092
2022-08-12T14:36:47.620Z,5084
2022-08-12T14:38:04.724Z,5052
2022-08-12T14:39:21.828Z,5072
2022-08-12T14:40:38.933Z,5060
2022-08-12T14:41:56.037Z,5056
2022-08-12T14:43:13.141Z,5056
2022-08-12T14:44:30.245Z,5060
2022-08-12T14:45:47.349Z,5056
2022-08-12T14:47:04.453Z,5040
2022-08-12T14:48:21.557Z,5028
2022-08-12T14:49:38.661Z,5024
2022-08-12T14:50:55.765Z,5020
2022-08-12T14:52:12.869Z,5024
2022-08-12T14:53:28.990Z,5012
2022-08-12T14:54:46.094Z,5004
2022-08-12T14:56:03.198Z,4996
2022-08-12T14:57:20.302Z,4988
2022-08-12T14:58:37.406Z,5000
2022-08-12T14:59:54.510Z,4988
2022-08-12T15:01:11.614Z,4988
2022-08-12T15:02:28.719Z,4992
2022-08-12T15:03:45.823Z,4992
2022-08-12T15:05:02.927Z,4988
2022-08-12T15:06:20.031Z,4984
2022-08-12T15:07:37.135Z,4976
2022-08-12T15:08:54.239Z,4968
2022-08-12T15:10:10.360Z,4972
2022-08-12T15:11:27.464Z,4964
2022-08-12T15:12:44.568Z,4952
2022-08-12T15:14:01.672Z,4948
2022-08-12T15:15:18.776Z,4944
2022-08-12T15:16:35.880Z,4936
2022-08-12T15:17:52.984Z,4936
2022-08-12T15:19:10.088Z,4924
2022-08-12T15:20:27.192Z,4928
2022-08-12T15:21:44.297Z,4924
2022-08-12T15:23:01.401Z,4920
2022-08-12T15:24:18.505Z,4912
2022-08-12T15:25:35.609Z,4892
2022-08-12T15:26:51.729Z,4884
2022-08-12T15:28:08.833Z,4872
2022-08-12T15:29:25.937Z,4860
2022-08-12T15:30:43.042Z,4856
2022-08-12T15:32:00.146Z,4836
2022-08-12T15:33:17.250Z,4832
2022-08-12T15:34:34.354Z,4816
2022-08-12T15:35:51.458Z,4816
2022-08-12T15:37:08.562Z,4796
2022-08-12T15:38:25.666Z,4796
2022-08-12T15:39:42.770Z,4788
2022-08-12T15:40:59.875Z,4788
2022-08-12T15:42:16.979Z,4796
2022-08-12T15:43:33.099Z,4776
2022-08-12T15:44:50.203Z,4772
2022-08-12T15:46:07.307Z,4768
2022-08-12T15:47:24.412Z,4752
2022-08-12T15:48:41.516Z,4740
2022-08-12T15:49:58.620Z,4744
2022-08-12T15:51:14.740Z,4720
2022-08-12T15:52:31.844Z,4708
2022-08-12T15:53:48.949Z,4692
2022-08-12T15:55:06.053Z,4676
2022-08-12T15:56:23.157Z,4672
2022-08-12T15:57:40.261Z,4648
2022-08-12T15:58:57.365Z,4632
2022-08-12T16:00:14.469Z,4620
2022-08-12T16:01:31.573Z,4604
2022-08-12T16:02:48.677Z,4588
2022-08-12T16:04:05.781Z,4552
2022-08-12T16:05:22.885Z,4536
2022-08-12T16:06:39.990Z,4532
2022-08-12T16:07:56.110Z,4528
2022-08-12T16:09:13.214Z,4508
2022-08-12T16:10:30.318Z,4492
2022-08-12T16:11:47.422Z,4468
2022-08-12T16:13:04.526Z,4448
2022-08-12T16:14:21.630Z,4428
2022-08-12T16:15:38.734Z,4412
2022-08-12T16:16:55.840Z,4392
2022-08-12T16:18:12.944Z,4356
2022-08-12T16:19:30.048Z,4356
2022-08-12T16:20:47.152Z,4360
2022-08-12T16:22:04.256Z,4352
2022-08-12T16:23:21.360Z,4336
2022-08-12T16:24:37.480Z,4312
2022-08-12T16:25:54.585Z,4284
2022-08-12T16:27:11.689Z,4264
2022-08-12T16:28:28.793Z,4240
2022-08-12T16:29:45.897Z,4216
2022-08-12T16:31:03.002Z,4188
2022-08-12T16:32:20.106Z,4176
2022-08-12T16:33:37.209Z,4160
2022-08-12T16:34:54.314Z,4144
2022-08-12T16:36:11.418Z,4116
2022-08-12T16:37:28.522Z,4104
2022-08-12T16:38:45.626Z,4084
2022-08-12T16:40:02.730Z,4064
2022-08-12T16:41:18.850Z,4044
2022-08-12T16:42:35.954Z,4020
2022-08-12T16:43:53.058Z,4008
2022-08-12T16:45:10.162Z,3988
2022-08-12T16:46:27.266Z,3964
2022-08-12T16:47:44.371Z,3940
2022-08-12T16:49:01.475Z,3924
2022-08-12T16:50:18.579Z,3904
2022-08-12T16:51:35.683Z,3896
2022-08-12T16:52:52.787Z,3884
2022-08-12T16:54:09.891Z,3868
2022-08-12T16:55:26.995Z,3844
2022-08-12T16:56:44.099Z,3832
2022-08-12T16:58:00.220Z,3808
2022-08-12T16:59:17.324Z,3788
2022-08-12T17:00:34.428Z,3768
2022-08-12T17:01:51.533Z,3748
2022-08-12T17:03:08.637Z,3728
2022-08-12T17:04:25.741Z,3704
2022-08-12T17:05:42.845Z,3684
2022-08-12T17:06:59.949Z,3664
2022-08-12T17:08:17.053Z,3644
2022-08-12T17:09:34.158Z,3624
2022-08-12T17:10:51.262Z,3600
2022-08-12T17:12:08.366Z,3584
2022-08-12T17:13:25.470Z,3556
2022-08-12T17:14:41.590Z,3528
2022-08-12T17:15:58.694Z,3504
2022-08-12T17:17:15.799Z,3476